createdAt,value
2022-09-16T00:02:28.503Z,11.55
2022-09-16T00:05:01.635Z,6.85
2022-09-16T00:07:33.885Z,5.88
2022-09-16T00:10:06.842Z,6.70
2022-09-16T00:12:38.729Z,6.38
2022-09-16T00:15:11.011Z,5.72
2022-09-16T00:17:43.741Z,7.55
2022-09-16T00:20:18.115Z,5.90
2022-09-16T00:22:50.331Z,6.35
2022-09-16T00:25:20.370Z,6.35
2022-09-16T00:27:49.922Z,5.75
2022-09-16T00:30:19.910Z,8.07
2022-09-16T00:32:49.049Z,7.13
2022-09-16T00:35:20.768Z,6.10
2022-09-16T00:37:50.007Z,5.60
2022-09-16T00:40:20.285Z,6.40
2022-09-16T00:42:49.163Z,6.53
2022-09-16T00:45:20.617Z,7.45
2022-09-16T00:47:52.714Z,6.32
2022-09-16T00:50:32.106Z,9.88
2022-09-16T00:53:02.806Z,9.20
2022-09-16T00:55:35.347Z,7.85
2022-09-16T00:58:12.136Z,8.45
2022-09-16T01:00:41.648Z,5.88
2022-09-16T01:03:12.894Z,5.60
2022-09-16T01:05:48.108Z,6.50
2022-09-16T01:08:18.183Z,6.00
2022-09-16T01:10:47.050Z,8.45
2022-09-16T01:13:16.992Z,5.97
2022-09-16T01:15:54.875Z,7.45
2022-09-16T01:18:32.818Z,6.32
2022-09-16T01:21:23.641Z,5.25
2022-09-16T01:24:19.378Z,5.72
2022-09-16T01:27:18.709Z,5.47
2022-09-16T01:30:21.167Z,4.60
2022-09-16T01:33:01.494Z,6.05
2022-09-16T01:35:43.393Z,5.65
2022-09-16T01:38:24.002Z,4.90
2022-09-16T01:40:58.675Z,4.32
2022-09-16T01:43:39.742Z,6.93
2022-09-16T01:46:18.555Z,5.10
2022-09-16T01:48:58.253Z,7.20
2022-09-16T01:51:31.748Z,4.35
2022-09-16T01:54:08.205Z,4.65
2022-09-16T01:56:44.452Z,4.63
2022-09-16T01:59:18.058Z,4.47
2022-09-16T02:01:53.459Z,4.60
2022-09-16T02:04:28.004Z,5.10
2022-09-16T02:06:58.632Z,5.22
2022-09-16T02:09:31.308Z,7.70
2022-09-16T02:12:05.725Z,7.57
2022-09-16T02:14:41.683Z,5.72
2022-09-16T02:17:12.718Z,6.43
2022-09-16T02:19:45.589Z,4.20
2022-09-16T02:22:16.524Z,4.10
2022-09-16T02:24:47.874Z,4.88
2022-09-16T02:27:19.544Z,4.50
2022-09-16T02:29:52.269Z,4.97
2022-09-16T02:32:24.312Z,5.47
2022-09-16T02:34:55.496Z,4.95
2022-09-16T02:37:28.204Z,5.57
2022-09-16T02:40:02.268Z,5.00
2022-09-16T02:42:31.378Z,5.75
2022-09-16T02:45:00.552Z,4.28
2022-09-16T02:47:32.973Z,5.13
2022-09-16T02:50:11.297Z,6.40
2022-09-16T02:52:44.927Z,5.43
2022-09-16T02:55:22.782Z,4.50
2022-09-16T02:57:51.621Z,6.72
2022-09-16T03:00:20.817Z,5.05
2022-09-16T03:02:49.375Z,5.78
2022-09-16T03:05:19.077Z,5.68
2022-09-16T03:07:47.521Z,5.10
2022-09-16T03:10:16.244Z,5.53
2022-09-16T03:12:57.768Z,5.30
2022-09-16T03:15:51.484Z,4.63
2022-09-16T03:18:51.787Z,6.43
2022-09-16T03:21:32.033Z,4.65
2022-09-16T03:24:10.342Z,4.15
2022-09-16T03:26:46.470Z,5.07
2022-09-16T03:29:27.579Z,4.47
2022-09-16T03:32:02.988Z,4.43
2022-09-16T03:34:35.479Z,6.18
2022-09-16T03:37:08.715Z,3.80
2022-09-16T03:39:38.011Z,3.72
2022-09-16T03:42:10.727Z,5.22
2022-09-16T03:44:41.090Z,4.70
2022-09-16T03:47:10.567Z,6.00
2022-09-16T03:49:39.047Z,7.30
2022-09-16T03:52:08.608Z,4.00
2022-09-16T03:54:37.321Z,6.97
2022-09-16T03:57:05.620Z,5.13
2022-09-16T03:59:33.846Z,5.47
2022-09-16T04:02:02.017Z,6.18
2022-09-16T04:04:30.146Z,4.90
2022-09-16T04:07:00.917Z,4.57
2022-09-16T04:09:30.453Z,4.30
2022-09-16T04:11:58.517Z,4.75
2022-09-16T04:14:26.898Z,4.93
2022-09-16T04:16:56.368Z,4.22
2022-09-16T04:19:24.794Z,5.28
2022-09-16T04:21:52.845Z,4.97
2022-09-16T04:24:21.144Z,4.78
2022-09-16T04:26:50.586Z,6.30
2022-09-16T04:29:18.843Z,4.95
2022-09-16T04:31:46.946Z,4.28
2022-09-16T04:34:15.285Z,4.10
2022-09-16T04:36:43.470Z,4.32
2022-09-16T04:39:12.365Z,4.32
2022-09-16T04:41:40.389Z,6.50
2022-09-16T04:44:11.941Z,6.38
2022-09-16T04:46:40.169Z,4.82
2022-09-16T04:49:08.408Z,4.75
2022-09-16T04:51:36.520Z,5.22
2022-09-16T04:54:05.094Z,5.57
2022-09-16T04:56:34.253Z,7.55
2022-09-16T04:59:04.942Z,7.57
2022-09-16T05:01:37.958Z,9.25
2022-09-16T05:04:07.725Z,9.00
2022-09-16T05:06:38.764Z,6.30
2022-09-16T05:09:06.807Z,8.07
2022-09-16T05:11:37.879Z,6.45
2022-09-16T05:14:08.420Z,11.27
2022-09-16T05:16:38.136Z,6.28
2022-09-16T05:19:18.359Z,8.98
2022-09-16T05:21:46.865Z,4.90
2022-09-16T05:24:15.369Z,6.85
2022-09-16T05:26:44.819Z,5.10
2022-09-16T05:29:15.734Z,5.57
2022-09-16T05:31:48.016Z,5.75
2022-09-16T05:34:18.408Z,5.47
2022-09-16T05:36:48.046Z,5.93
2022-09-16T05:39:23.145Z,4.82
2022-09-16T05:41:55.434Z,5.63
2022-09-16T05:44:24.125Z,4.65
2022-09-16T05:46:54.161Z,4.00
2022-09-16T05:49:23.727Z,4.70
2022-09-16T05:51:52.720Z,6.38
2022-09-16T05:54:23.834Z,7.25
2022-09-16T05:56:52.728Z,6.28
2022-09-16T05:59:20.881Z,6.72
2022-09-16T06:01:49.153Z,4.68
2022-09-16T06:04:18.660Z,5.30
2022-09-16T06:06:48.079Z,5.30
2022-09-16T06:09:17.939Z,6.05
2022-09-16T06:11:47.905Z,6.90
2022-09-16T06:14:17.875Z,6.63
2022-09-16T06:16:46.960Z,4.78
2022-09-16T06:19:17.349Z,6.68
2022-09-16T06:21:47.547Z,5.78
2022-09-16T06:24:18.284Z,6.18
2022-09-16T06:26:47.716Z,6.00
2022-09-16T06:29:17.502Z,5.72
2022-09-16T06:31:45.714Z,4.70
2022-09-16T06:34:18.475Z,6.57
2022-09-16T06:36:48.293Z,7.22
2022-09-16T06:39:18.233Z,6.88
2022-09-16T06:41:46.718Z,7.28
2022-09-16T06:44:14.820Z,12.02
2022-09-16T06:46:44.319Z,7.72
2022-09-16T06:49:13.242Z,8.77
2022-09-16T06:51:41.708Z,13.75
2022-09-16T06:54:12.124Z,8.02
2022-09-16T06:56:41.481Z,6.13
2022-09-16T06:59:14.296Z,8.88
2022-09-16T07:01:42.579Z,9.00
2022-09-16T07:04:13.321Z,7.40
2022-09-16T07:09:31.855Z,10.65
2022-09-16T07:12:00.545Z,12.48
2022-09-16T07:14:32.547Z,8.68
2022-09-16T07:17:02.969Z,11.68
2022-09-16T07:19:31.249Z,8.18
2022-09-16T07:21:59.527Z,7.70
2022-09-16T07:24:27.619Z,9.30
2022-09-16T07:26:57.284Z,6.88
2022-09-16T07:29:25.357Z,10.25
2022-09-16T07:31:53.606Z,4.95
2022-09-16T07:34:21.780Z,6.50
2022-09-16T07:36:50.859Z,5.10
2022-09-16T07:39:19.891Z,6.38
2022-09-16T07:41:49.506Z,7.13
2022-09-16T07:44:21.017Z,7.13
2022-09-16T07:46:51.076Z,5.95
2022-09-16T07:49:19.590Z,6.63
2022-09-16T07:51:48.318Z,8.95
2022-09-16T07:54:18.322Z,7.88
2022-09-16T07:56:46.587Z,6.50
2022-09-16T07:59:18.783Z,7.32
2022-09-16T08:01:49.981Z,5.70
2022-09-16T08:04:19.033Z,6.47
2022-09-16T08:06:47.357Z,6.03
2022-09-16T08:09:37.408Z,5.82
2022-09-16T08:12:06.506Z,7.55
2022-09-16T08:14:34.940Z,7.60
2022-09-16T08:17:06.770Z,7.30
2022-09-16T08:19:35.362Z,8.88
2022-09-16T08:22:03.501Z,7.60
2022-09-16T08:24:31.835Z,5.65
2022-09-16T08:27:00.197Z,9.43
2022-09-16T08:29:28.304Z,9.75
2022-09-16T08:31:56.517Z,6.85
2022-09-16T08:34:26.466Z,6.45
2022-09-16T08:36:54.723Z,7.53
2022-09-16T08:39:22.982Z,6.70
2022-09-16T08:42:30.058Z,6.60
2022-09-16T08:45:09.562Z,6.05
2022-09-16T08:47:49.774Z,6.85
2022-09-16T08:50:23.648Z,6.97
2022-09-16T08:52:53.910Z,7.80
2022-09-16T08:55:31.448Z,6.30
2022-09-16T08:58:03.524Z,10.50
2022-09-16T09:00:32.543Z,7.60
2022-09-16T09:03:08.695Z,7.63
2022-09-16T09:05:51.224Z,7.40
2022-09-16T09:08:38.152Z,6.50
2022-09-16T09:11:16.038Z,6.68
2022-09-16T09:13:57.083Z,8.68
2022-09-16T09:16:38.773Z,6.25
2022-09-16T09:19:24.502Z,6.25
2022-09-16T09:22:04.617Z,5.88
2022-09-16T09:24:53.456Z,5.70
2022-09-16T09:27:29.337Z,7.05
2022-09-16T09:30:06.795Z,5.70
2022-09-16T09:32:54.952Z,7.30
2022-09-16T09:35:32.452Z,5.47
2022-09-16T09:38:20.147Z,6.32
2022-09-16T09:40:53.727Z,7.57
2022-09-16T09:43:26.172Z,6.20
2022-09-16T09:45:59.336Z,5.47
2022-09-16T09:48:34.829Z,7.20
2022-09-16T09:51:12.216Z,5.10
2022-09-16T09:53:47.006Z,4.20
2022-09-16T09:56:21.364Z,5.13
2022-09-16T09:58:58.705Z,6.43
2022-09-16T10:01:26.925Z,4.40
2022-09-16T10:03:57.868Z,4.47
2022-09-16T10:06:30.989Z,8.05
2022-09-16T10:09:00.899Z,4.57
2022-09-16T10:11:31.132Z,4.22
2022-09-16T10:14:01.001Z,5.78
2022-09-16T10:16:31.895Z,6.85
2022-09-16T10:19:05.357Z,4.93
2022-09-16T10:21:47.111Z,6.13
2022-09-16T10:24:38.553Z,5.47
2022-09-16T10:27:22.196Z,9.48
2022-09-16T10:30:05.462Z,4.82
2022-09-16T10:32:46.622Z,5.00
2022-09-16T10:35:20.221Z,8.40
2022-09-16T10:37:54.767Z,4.13
2022-09-16T10:40:25.677Z,7.45
2022-09-16T10:42:55.722Z,5.80
2022-09-16T10:45:28.508Z,5.43
2022-09-16T10:48:02.129Z,4.53
2022-09-16T10:50:33.406Z,5.35
2022-09-16T10:53:01.551Z,7.95
2022-09-16T10:55:35.490Z,5.70
2022-09-16T10:58:13.972Z,6.63
2022-09-16T11:00:51.948Z,5.00
2022-09-16T11:03:46.705Z,5.70
2022-09-16T11:06:31.241Z,5.88
2022-09-16T11:09:09.502Z,6.97
2022-09-16T11:11:51.067Z,4.43
2022-09-16T11:14:29.660Z,8.13
2022-09-16T11:17:14.137Z,5.45
2022-09-16T11:19:54.826Z,4.50
2022-09-16T11:22:32.632Z,6.38
2022-09-16T11:25:30.224Z,5.32
2022-09-16T11:28:11.424Z,4.22
2022-09-16T11:30:50.846Z,5.55
2022-09-16T11:33:28.699Z,5.43
2022-09-16T11:36:22.008Z,4.10
2022-09-16T11:39:01.923Z,5.03
2022-09-16T11:41:35.688Z,5.10
2022-09-16T11:44:20.497Z,4.78
2022-09-16T11:47:02.231Z,4.20
2022-09-16T11:49:46.380Z,3.78
2022-09-16T11:52:25.521Z,4.85
2022-09-16T11:55:10.121Z,4.18
2022-09-16T11:57:43.243Z,6.38
2022-09-16T12:00:17.347Z,5.55
2022-09-16T12:02:57.208Z,3.67
2022-09-16T12:05:32.615Z,6.38
2022-09-16T12:08:11.797Z,3.10
2022-09-16T12:10:46.545Z,3.65
2022-09-16T12:13:21.514Z,5.45
2022-09-16T12:15:55.470Z,3.50
2022-09-16T12:18:28.742Z,2.80
2022-09-16T12:21:06.690Z,4.20
2022-09-16T12:23:40.425Z,3.15
2022-09-16T12:26:11.559Z,4.15
2022-09-16T12:28:47.139Z,3.17
2022-09-16T12:31:23.948Z,2.85
2022-09-16T12:33:57.976Z,2.83
2022-09-16T12:36:31.262Z,3.60
2022-09-16T12:39:00.378Z,3.50
2022-09-16T12:41:49.947Z,3.85
2022-09-16T12:44:34.506Z,4.10
2022-09-16T12:47:31.333Z,3.15
2022-09-16T12:50:35.696Z,4.75
2022-09-16T12:53:40.921Z,4.93
2022-09-16T12:56:12.627Z,5.75
2022-09-16T12:59:04.704Z,3.70
2022-09-16T13:01:39.643Z,3.75
2022-09-16T13:04:17.374Z,3.58
2022-09-16T13:06:48.806Z,3.20
2022-09-16T13:09:23.419Z,5.65
2022-09-16T13:14:47.635Z,4.18
2022-09-16T13:17:15.837Z,3.20
2022-09-16T13:19:52.914Z,3.75
2022-09-16T13:22:25.503Z,6.78
2022-09-16T13:25:00.639Z,3.15
2022-09-16T13:27:35.519Z,5.80
2022-09-16T13:30:28.367Z,4.45
2022-09-16T13:33:02.411Z,3.65
2022-09-16T13:35:43.438Z,3.10
2022-09-16T13:38:38.789Z,6.53
2022-09-16T13:41:08.404Z,7.32
2022-09-16T13:43:38.597Z,3.20
2022-09-16T13:46:09.870Z,2.97
2022-09-16T13:48:42.828Z,2.78
2022-09-16T13:51:22.708Z,4.80
2022-09-16T13:53:52.616Z,6.10
2022-09-16T13:56:41.560Z,2.42
2022-09-16T13:59:27.689Z,4.43
2022-09-16T14:02:08.599Z,5.22
2022-09-16T14:04:54.407Z,2.67
2022-09-16T14:07:36.661Z,2.67
2022-09-16T14:10:12.851Z,3.63
2022-09-16T14:12:49.331Z,4.72
2022-09-16T14:15:19.101Z,3.83
2022-09-16T14:17:51.664Z,2.75
2022-09-16T14:20:23.045Z,7.50
2022-09-16T14:23:03.442Z,6.45
2022-09-16T14:25:34.844Z,4.63
2022-09-16T14:28:18.986Z,2.65
2022-09-16T14:30:53.813Z,3.70
2022-09-16T14:33:26.794Z,3.60
2022-09-16T14:35:56.887Z,2.80
2022-09-16T14:38:45.463Z,3.72
2022-09-16T14:41:27.111Z,3.13
2022-09-16T14:43:59.074Z,2.72
2022-09-16T14:46:27.797Z,5.93
2022-09-16T14:48:56.076Z,4.70
2022-09-16T14:51:27.591Z,3.00
2022-09-16T14:54:12.136Z,3.45
2022-09-16T14:56:41.535Z,4.00
2022-09-16T14:59:13.517Z,2.28
2022-09-16T15:01:43.326Z,3.88
2022-09-16T15:04:19.293Z,4.75
2022-09-16T15:06:55.300Z,2.25
2022-09-16T15:09:29.840Z,3.15
2022-09-16T15:12:00.232Z,5.43
2022-09-16T15:14:29.216Z,5.15
2022-09-16T15:17:01.140Z,3.78
2022-09-16T15:19:32.612Z,2.42
2022-09-16T15:22:01.332Z,7.60
2022-09-16T15:24:35.911Z,3.47
2022-09-16T15:27:04.852Z,7.82
2022-09-16T15:29:35.355Z,4.20
2022-09-16T15:32:19.051Z,3.58
2022-09-16T15:34:47.248Z,3.30
2022-09-16T15:37:31.412Z,4.13
2022-09-16T15:40:12.319Z,3.70
2022-09-16T15:42:40.594Z,2.95
2022-09-16T15:45:18.433Z,4.32
2022-09-16T15:48:02.199Z,2.45
2022-09-16T15:50:38.973Z,2.35
2022-09-16T15:53:11.996Z,6.15
2022-09-16T15:55:45.324Z,5.40
2022-09-16T15:58:18.811Z,2.70
2022-09-16T16:01:07.750Z,2.45
2022-09-16T16:03:46.793Z,3.85
2022-09-16T16:06:15.088Z,5.90
2022-09-16T16:08:47.347Z,5.38
2022-09-16T16:11:18.382Z,4.38
2022-09-16T16:13:46.973Z,4.10
2022-09-16T16:16:17.088Z,2.60
2022-09-16T16:18:47.280Z,3.35
2022-09-16T16:21:17.667Z,4.38
2022-09-16T16:23:45.788Z,2.67
2022-09-16T16:26:14.032Z,5.43
2022-09-16T16:28:43.691Z,6.07
2022-09-16T16:31:14.754Z,3.83
2022-09-16T16:33:45.156Z,2.97
2022-09-16T16:36:14.966Z,2.95
2022-09-16T16:38:43.625Z,3.83
2022-09-16T16:41:12.457Z,2.20
2022-09-16T16:43:40.816Z,4.47
2022-09-16T16:46:10.358Z,4.28
2022-09-16T16:48:39.269Z,2.28
2022-09-16T16:51:08.894Z,3.35
2022-09-16T16:53:37.833Z,2.47
2022-09-16T16:56:11.279Z,1.98
2022-09-16T16:58:43.115Z,1.90
2022-09-16T17:01:16.308Z,2.90
2022-09-16T17:03:47.630Z,4.30
2022-09-16T17:06:16.104Z,2.55
2022-09-16T17:08:44.234Z,1.27
2022-09-16T17:11:14.445Z,1.92
2022-09-16T17:13:44.101Z,3.28
2022-09-16T17:16:16.275Z,2.42
2022-09-16T17:18:44.909Z,3.83
2022-09-16T17:21:15.094Z,2.13
2022-09-16T17:23:43.688Z,1.83
2022-09-16T17:26:13.184Z,1.63
2022-09-16T17:28:44.892Z,3.47
2022-09-16T17:31:16.865Z,1.80
2022-09-16T17:33:45.637Z,4.22
2022-09-16T17:36:15.630Z,1.80
2022-09-16T17:38:44.073Z,3.65
2022-09-16T17:41:14.184Z,1.23
2022-09-16T17:43:43.728Z,3.20
2022-09-16T17:46:17.268Z,1.30
2022-09-16T17:48:46.393Z,1.65
2022-09-16T17:51:15.331Z,9.45
2022-09-16T17:53:43.949Z,2.17
2022-09-16T17:56:14.998Z,2.67
2022-09-16T17:58:45.827Z,1.40
2022-09-16T18:01:30.971Z,3.72
2022-09-16T18:04:01.893Z,1.27
2022-09-16T18:06:32.251Z,1.40
2022-09-16T18:09:01.619Z,3.90
2022-09-16T18:14:25.667Z,1.42
2022-09-16T18:16:54.091Z,1.63
2022-09-16T18:19:27.081Z,1.80
2022-09-16T18:21:56.028Z,4.05
2022-09-16T18:24:24.546Z,5.50
2022-09-16T18:26:54.538Z,5.85
2022-09-16T18:29:23.750Z,1.40
2022-09-16T18:31:54.503Z,2.25
2022-09-16T18:34:26.459Z,1.60
2022-09-16T18:36:59.263Z,3.50
2022-09-16T18:39:29.258Z,1.80
2022-09-16T18:42:00.552Z,3.28
2022-09-16T18:44:31.808Z,1.10
2022-09-16T18:47:03.155Z,2.47
2022-09-16T18:49:33.821Z,1.50
2022-09-16T18:52:05.409Z,1.58
2022-09-16T18:54:36.426Z,2.05
2022-09-16T18:57:07.969Z,1.73
2022-09-16T18:59:39.227Z,1.60
2022-09-16T19:02:13.716Z,2.50
2022-09-16T19:04:46.234Z,1.60
2022-09-16T19:07:19.760Z,2.78
2022-09-16T19:09:49.354Z,1.20
2022-09-16T19:12:20.069Z,2.10
2022-09-16T19:14:50.403Z,1.77
2022-09-16T19:17:19.697Z,1.20
2022-09-16T19:20:15.202Z,0.90
2022-09-16T19:22:47.405Z,0.93
2022-09-16T19:25:17.204Z,1.52
2022-09-16T19:27:47.137Z,1.45
2022-09-16T19:30:16.471Z,1.23
2022-09-16T19:32:45.239Z,1.40
2022-09-16T19:35:14.169Z,1.08
2022-09-16T19:37:43.148Z,1.30
2022-09-16T19:40:14.120Z,1.70
2022-09-16T19:42:43.520Z,2.13
2022-09-16T19:45:12.301Z,1.30
2022-09-16T19:47:41.487Z,1.52
2022-09-16T19:50:12.201Z,2.58
2022-09-16T19:52:41.132Z,1.10
2022-09-16T19:55:11.389Z,1.38
2022-09-16T19:57:42.316Z,0.80
2022-09-16T20:00:15.829Z,1.77
2022-09-16T20:02:46.022Z,0.70
2022-09-16T20:05:15.778Z,1.00
2022-09-16T20:07:44.735Z,2.70
2022-09-16T20:10:13.887Z,2.28
2022-09-16T20:12:44.166Z,0.80
2022-09-16T20:15:12.806Z,1.13
2022-09-16T20:17:42.071Z,0.70
2022-09-16T20:20:10.978Z,1.10
2022-09-16T20:22:39.634Z,1.00
2022-09-16T20:25:22.410Z,1.33
2022-09-16T20:27:53.371Z,1.00
2022-09-16T20:30:21.430Z,1.55
2022-09-16T20:32:49.456Z,0.80
2022-09-16T20:35:17.600Z,1.80
2022-09-16T20:37:45.643Z,0.85
2022-09-16T20:40:13.678Z,1.23
2022-09-16T20:42:41.803Z,1.25
2022-09-16T20:45:12.118Z,1.30
2022-09-16T20:47:40.235Z,1.02
2022-09-16T20:50:09.357Z,1.60
2022-09-16T20:52:37.589Z,2.70
2022-09-16T20:55:06.387Z,0.73
2022-09-16T20:57:34.505Z,1.25
2022-09-16T21:00:03.092Z,2.25
2022-09-16T21:02:33.387Z,1.20
2022-09-16T21:05:04.620Z,0.80
2022-09-16T21:07:32.630Z,0.85
2022-09-16T21:10:00.668Z,1.25
2022-09-16T21:12:30.575Z,1.40
2022-09-16T21:14:58.793Z,1.73
2022-09-16T21:17:26.862Z,0.98
2022-09-16T21:19:56.751Z,1.30
2022-09-16T21:22:24.923Z,0.95
2022-09-16T21:24:52.910Z,2.53
2022-09-16T21:27:21.096Z,1.13
2022-09-16T21:29:52.052Z,3.85
2022-09-16T21:32:20.467Z,2.10
2022-09-16T21:34:48.457Z,2.10
2022-09-16T21:37:17.812Z,1.10
2022-09-16T21:39:46.017Z,3.92
2022-09-16T21:42:13.992Z,1.50
2022-09-16T21:44:42.352Z,1.05
2022-09-16T21:47:11.556Z,1.85
2022-09-16T21:49:41.170Z,1.15
2022-09-16T21:52:10.507Z,2.10
2022-09-16T21:54:40.082Z,2.15
2022-09-16T21:57:08.297Z,2.30
2022-09-16T21:59:36.449Z,0.73
2022-09-16T22:02:04.566Z,0.80
2022-09-16T22:04:32.747Z,2.05
2022-09-16T22:07:00.731Z,0.98
2022-09-16T22:09:28.907Z,2.17
2022-09-16T22:11:59.055Z,1.02
2022-09-16T22:14:27.175Z,1.15
2022-09-16T22:16:55.222Z,1.05
2022-09-16T22:19:23.267Z,1.27
2022-09-16T22:21:52.349Z,1.50
2022-09-16T22:24:21.432Z,1.75
2022-09-16T22:26:51.051Z,1.08
2022-09-16T22:29:20.580Z,2.17
2022-09-16T22:31:48.747Z,1.20
2022-09-16T22:34:16.980Z,1.83
2022-09-16T22:36:45.029Z,1.10
2022-09-16T22:39:15.278Z,1.00
2022-09-16T22:41:43.840Z,1.08
2022-09-16T22:44:12.419Z,2.95
2022-09-16T22:46:43.826Z,1.20
2022-09-16T22:49:12.210Z,1.17
2022-09-16T22:51:40.985Z,1.30
2022-09-16T22:54:10.196Z,1.58
2022-09-16T22:56:38.407Z,1.30
2022-09-16T22:59:08.303Z,0.95
2022-09-16T23:01:40.628Z,1.98
2022-09-16T23:04:10.863Z,1.90
2022-09-16T23:06:41.288Z,2.03
2022-09-16T23:09:10.269Z,1.45
2022-09-16T23:11:38.339Z,1.77
2022-09-16T23:14:06.611Z,1.17
2022-09-16T23:16:36.652Z,1.40
2022-09-16T23:19:06.931Z,2.40
2022-09-16T23:21:37.549Z,1.20
2022-09-16T23:24:07.568Z,1.77
2022-09-16T23:26:37.191Z,2.17
2022-09-16T23:29:07.540Z,1.45
2022-09-16T23:31:39.639Z,1.55
2022-09-16T23:34:09.116Z,2.70
2022-09-16T23:36:39.425Z,1.20
2022-09-16T23:39:08.608Z,1.40
2022-09-16T23:41:36.945Z,1.10
2022-09-16T23:44:05.635Z,3.03
2022-09-16T23:46:34.433Z,1.75
2022-09-16T23:49:03.001Z,1.33
2022-09-16T23:51:32.347Z,2.28
2022-09-16T23:54:02.107Z,5.20
2022-09-16T23:56:32.754Z,1.63
2022-09-16T23:59:01.676Z,3.08
